Time;durP1;ratioP1;P1;durP2;ratioP2;P2;SDS_P1;SDS_P2;PMS_P1;PMS_P2;Temp;Humidity;BMP_temperature;BMP_pressure;BME280_temperature;BME280_humidity;BME280_pressure;Samples;Min_cycle;Max_cycle;Signal;HPM_P1;HPM_P2
2022/11/15 00:00:08;;;;;;;7.65;5.65;;;8.20;76.50;;;;;;5043519;28;20071;-60
2022/11/15 00:02:33;;;;;;;7.28;5.53;;;8.20;76.60;;;;;;5050572;28;20523;-60
2022/11/15 00:04:59;;;;;;;7.85;5.80;;;8.10;76.70;;;;;;5041867;28;20116;-60
2022/11/15 00:07:25;;;;;;;8.57;7.00;;;8.10;76.70;;;;;;5051105;28;20028;-59
2022/11/15 00:09:50;;;;;;;10.20;6.75;;;8.10;76.80;;;;;;5033585;28;20473;-60
2022/11/15 00:12:16;;;;;;;8.85;6.65;;;8.00;76.70;;;;;;5049791;28;20070;-59
2022/11/15 00:14:41;;;;;;;8.40;6.90;;;7.90;76.90;;;;;;5042482;28;20063;-60
2022/11/15 00:17:07;;;;;;;10.25;7.43;;;7.80;76.80;;;;;;5051053;28;20476;-59
2022/11/15 00:19:33;;;;;;;9.18;6.78;;;7.80;76.90;;;;;;5036657;28;20033;-59
2022/11/15 00:21:58;;;;;;;8.82;6.75;;;7.70;76.90;;;;;;5047995;28;20104;-60
2022/11/15 00:24:24;;;;;;;9.63;6.90;;;7.70;77.00;;;;;;5043481;28;20064;-60
2022/11/15 00:26:50;;;;;;;7.93;6.18;;;7.60;77.00;;;;;;5049735;28;20093;-60
2022/11/15 00:29:15;;;;;;;8.50;6.60;;;7.60;77.10;;;;;;5029814;28;20460;-59
2022/11/15 00:31:41;;;;;;;7.90;6.50;;;7.50;77.10;;;;;;5039899;28;20017;-60
2022/11/15 00:34:06;;;;;;;9.30;6.60;;;7.50;77.10;;;;;;5032226;28;20560;-59
2022/11/15 00:36:35;;;;;;;9.10;7.07;;;7.50;77.80;;;;;;5032361;28;20029;-59
2022/11/15 00:39:02;;;;;;;10.43;7.60;;;7.50;77.20;;;;;;5030640;28;20041;-60
2022/11/15 00:41:28;;;;;;;8.88;7.13;;;7.40;77.20;;;;;;5030782;28;20025;-60
2022/11/15 00:43:54;;;;;;;11.23;7.82;;;7.40;77.20;;;;;;5032200;28;20043;-59
2022/11/15 00:46:19;;;;;;;11.73;8.10;;;7.30;77.10;;;;;;5035045;28;20027;-59
2022/11/15 00:48:45;;;;;;;9.55;7.72;;;7.30;77.10;;;;;;5043032;28;20044;-59
2022/11/15 00:51:10;;;;;;;8.63;6.65;;;7.20;77.10;;;;;;5049303;28;20074;-59
2022/11/15 00:53:36;;;;;;;9.35;7.45;;;7.20;77.80;;;;;;5037618;28;20026;-60
2022/11/15 00:56:02;;;;;;;9.68;6.97;;;7.20;77.20;;;;;;5037049;28;20025;-60
2022/11/15 00:58:28;;;;;;;7.60;6.40;;;7.10;77.30;;;;;;5042037;28;20137;-60
2022/11/15 01:00:54;;;;;;;9.02;6.35;;;7.10;77.40;;;;;;5046170;28;20024;-59
2022/11/15 01:03:20;;;;;;;7.95;6.30;;;7.10;77.30;;;;;;5031175;28;20022;-60
2022/11/15 01:05:45;;;;;;;8.88;6.85;;;7.00;77.40;;;;;;5030601;28;20480;-60
2022/11/15 01:08:15;;;;;;;7.88;6.28;;;7.00;77.40;;;;;;5030105;28;20029;-59
2022/11/15 01:10:41;;;;;;;9.52;7.60;;;7.00;77.30;;;;;;5043005;28;20033;-60
2022/11/15 01:13:07;;;;;;;8.73;6.75;;;7.00;77.40;;;;;;5031559;28;20021;-59
2022/11/15 01:15:33;;;;;;;9.40;6.68;;;7.00;77.50;;;;;;5032668;28;20041;-60
2022/11/15 01:17:59;;;;;;;7.68;6.47;;;6.90;77.50;;;;;;5026430;28;20033;-60
2022/11/15 01:20:24;;;;;;;6.68;5.97;;;6.90;77.50;;;;;;5039265;28;20116;-60
2022/11/15 01:22:50;;;;;;;7.70;6.15;;;6.90;77.60;;;;;;5045333;28;20385;-59
2022/11/15 01:25:16;;;;;;;8.13;6.55;;;6.90;77.70;;;;;;5036849;28;20029;-59
2022/11/15 01:27:41;;;;;;;8.32;6.22;;;6.90;77.70;;;;;;5048288;28;20035;-60
2022/11/15 01:30:08;;;;;;;7.00;6.18;;;6.90;77.80;;;;;;5042262;28;20116;-59
2022/11/15 01:32:33;;;;;;;8.00;6.13;;;6.90;77.80;;;;;;5040357;28;20421;-60
2022/11/15 01:34:59;;;;;;;7.15;5.43;;;6.90;77.80;;;;;;5030439;28;20080;-56
2022/11/15 01:37:25;;;;;;;7.43;5.80;;;6.90;77.80;;;;;;5034400;28;20320;-59
2022/11/15 01:39:50;;;;;;;7.22;5.25;;;6.90;77.80;;;;;;5030062;28;20527;-60
2022/11/15 01:42:16;;;;;;;8.98;6.03;;;6.90;77.90;;;;;;5044854;28;20024;-60
2022/11/15 01:44:52;;;;;;;6.75;5.07;;;7.00;77.90;;;;;;5032327;28;20461;-59
2022/11/15 01:47:35;;;;;;;6.57;4.97;;;7.00;77.80;;;;;;5032079;28;20021;-59
2022/11/15 01:50:12;;;;;;;6.88;5.15;;;7.00;77.90;;;;;;5027533;28;20021;-59
2022/11/15 01:52:39;;;;;;;6.47;5.28;;;7.10;77.90;;;;;;5031767;28;20133;-59
2022/11/15 01:55:10;;;;;;;7.18;5.80;;;7.10;77.80;;;;;;5029978;28;20423;-59
2022/11/15 01:57:37;;;;;;;7.35;5.93;;;7.10;77.70;;;;;;5021205;28;20059;-59
2022/11/15 02:00:04;;;;;;;7.93;5.18;;;7.10;77.80;;;;;;5028174;28;20555;-60
2022/11/15 02:02:31;;;;;;;6.25;4.95;;;7.20;78.00;;;;;;5032199;28;20017;-57
2022/11/15 02:04:56;;;;;;;7.03;5.22;;;7.20;78.00;;;;;;5031304;28;20113;-56
2022/11/15 02:07:22;;;;;;;6.03;5.00;;;7.20;78.10;;;;;;5029748;28;20532;-57
2022/11/15 02:09:49;;;;;;;7.47;5.50;;;7.20;78.10;;;;;;5040195;28;20473;-56
2022/11/15 02:12:19;;;;;;;6.07;5.07;;;7.30;78.10;;;;;;5045149;28;20079;-56
2022/11/15 02:14:53;;;;;;;9.45;5.43;;;7.40;78.20;;;;;;5036473;28;20106;-57
2022/11/15 02:17:51;;;;;;;5.85;4.07;;;7.40;78.20;;;;;;5050376;28;20104;-56
2022/11/15 02:20:35;;;;;;;5.50;4.13;;;7.40;78.20;;;;;;5029552;28;20392;-57
2022/11/15 02:23:43;;;;;;;6.70;4.72;;;7.40;78.30;;;;;;5026212;28;20033;-57
2022/11/15 02:26:27;;;;;;;6.78;4.82;;;7.50;78.20;;;;;;5012504;28;20080;-56
2022/11/15 02:29:08;;;;;;;6.57;5.13;;;7.60;78.00;;;;;;5033102;28;20033;-57
2022/11/15 02:32:03;;;;;;;8.48;6.05;;;7.70;77.70;;;;;;5026958;28;20067;-57
2022/11/15 02:34:33;;;;;;;6.38;4.88;;;7.70;77.40;;;;;;5028423;28;20021;-57
2022/11/15 02:37:13;;;;;;;6.78;4.95;;;7.70;77.50;;;;;;5030940;28;20152;-57
2022/11/15 02:39:39;;;;;;;6.78;5.05;;;7.70;77.70;;;;;;5031301;28;20064;-57
2022/11/15 02:45:13;;;;;;;6.88;5.05;;;7.60;77.90;;;;;;5031011;28;20032;-58
2022/11/15 02:47:45;;;;;;;6.28;4.65;;;7.70;77.90;;;;;;5042936;28;20132;-56
2022/11/15 02:50:15;;;;;;;6.97;5.13;;;7.70;77.80;;;;;;5044043;28;20096;-56
2022/11/15 02:52:44;;;;;;;7.05;5.60;;;7.70;77.90;;;;;;5042349;28;20024;-56
2022/11/15 02:55:28;;;;;;;7.28;5.72;;;7.70;77.90;;;;;;5044557;28;20392;-57
2022/11/15 02:57:59;;;;;;;6.65;4.78;;;7.70;77.90;;;;;;5032832;28;20037;-57
2022/11/15 03:00:26;;;;;;;7.57;5.25;;;7.70;78.10;;;;;;5037950;28;20071;-56
2022/11/15 03:03:28;;;;;;;6.35;4.50;;;7.60;78.30;;;;;;5047589;28;20468;-56
2022/11/15 03:06:04;;;;;;;6.57;4.15;;;7.70;78.30;;;;;;5029393;28;20037;-57
2022/11/15 03:08:50;;;;;;;6.00;4.57;;;7.70;78.50;;;;;;5030520;28;20022;-56
2022/11/15 03:11:19;;;;;;;6.88;4.93;;;7.70;78.50;;;;;;5030974;28;20026;-58
2022/11/15 03:13:57;;;;;;;5.25;4.38;;;7.70;78.50;;;;;;5028824;28;20044;-56
2022/11/15 03:16:48;;;;;;;5.75;4.18;;;7.70;78.50;;;;;;5020848;28;20026;-56
2022/11/15 03:19:35;;;;;;;6.63;4.55;;;7.80;78.60;;;;;;5034448;28;20052;-59
2022/11/15 03:22:05;;;;;;;5.55;4.07;;;7.80;78.60;;;;;;5036411;28;20051;-57
2022/11/15 03:24:35;;;;;;;7.50;5.25;;;7.80;78.60;;;;;;5030480;28;20022;-56
2022/11/15 03:27:03;;;;;;;8.55;6.28;;;7.80;78.50;;;;;;5030501;28;20124;-56
2022/11/15 03:29:37;;;;;;;12.73;7.32;;;7.90;78.40;;;;;;5032417;28;20067;-57
2022/11/15 03:32:29;;;;;;;13.13;7.32;;;7.90;78.10;;;;;;5034646;28;20028;-57
2022/11/15 03:35:02;;;;;;;11.63;8.10;;;8.00;77.90;;;;;;5039930;28;20041;-56
2022/11/15 03:37:39;;;;;;;12.63;6.75;;;8.00;77.60;;;;;;5034205;28;20029;-60
2022/11/15 03:40:06;;;;;;;11.45;7.53;;;8.00;77.50;;;;;;5037144;28;20033;-56
2022/11/15 03:42:51;;;;;;;10.10;7.45;;;8.00;77.20;;;;;;5045106;28;20056;-56
2022/11/15 03:45:28;;;;;;;12.23;8.23;;;8.00;76.90;;;;;;5008268;28;20044;-56
2022/11/15 03:48:18;;;;;;;10.02;7.10;;;7.90;76.50;;;;;;5038754;28;20033;-57
2022/11/15 03:50:45;;;;;;;11.05;7.63;;;7.90;76.40;;;;;;5032895;28;20068;-57
2022/11/15 03:53:12;;;;;;;14.18;9.48;;;7.80;76.10;;;;;;5041312;28;20083;-56
2022/11/15 03:55:38;;;;;;;14.38;9.68;;;7.80;76.10;;;;;;5037560;28;20226;-56
2022/11/15 03:58:03;;;;;;;16.27;10.77;;;7.70;75.90;;;;;;5035665;28;20032;-57
2022/11/15 04:00:29;;;;;;;13.23;9.45;;;7.60;76.00;;;;;;5034297;28;20384;-56
2022/11/15 04:02:55;;;;;;;14.30;10.15;;;7.60;76.20;;;;;;5036639;28;20115;-56
2022/11/15 04:05:20;;;;;;;16.63;11.57;;;7.50;76.20;;;;;;5036871;28;20022;-56
2022/11/15 04:07:46;;;;;;;17.42;12.05;;;7.50;76.00;;;;;;5041041;28;20025;-56
2022/11/15 04:10:12;;;;;;;15.43;10.63;;;7.50;75.80;;;;;;5036616;28;20036;-57
2022/11/15 04:12:42;;;;;;;14.73;9.95;;;7.40;75.70;;;;;;5040720;28;20083;-56
2022/11/15 04:15:16;;;;;;;13.10;9.63;;;7.30;75.50;;;;;;5034801;28;20044;-56
2022/11/15 04:17:43;;;;;;;10.13;8.35;;;7.30;75.40;;;;;;5039908;28;20107;-56
2022/11/15 04:25:44;;;;;;;8.10;6.72;;;7.00;75.20;;;;;;5034685;28;20044;-56
2022/11/15 04:28:11;;;;;;;7.95;6.38;;;7.00;75.20;;;;;;5035909;28;20018;-57
2022/11/15 04:30:36;;;;;;;10.73;7.35;;;7.00;75.30;;;;;;5037444;28;20017;-57
2022/11/15 04:33:02;;;;;;;10.07;6.95;;;6.90;75.20;;;;;;5032396;28;20039;-56
2022/11/15 04:35:28;;;;;;;11.02;7.55;;;6.90;75.20;;;;;;5037892;28;20021;-56
2022/11/15 04:37:55;;;;;;;9.60;6.95;;;6.90;75.10;;;;;;5041933;28;20047;-57
2022/11/15 04:40:20;;;;;;;9.20;6.32;;;6.80;75.10;;;;;;5046756;28;20070;-56
2022/11/15 04:42:46;;;;;;;10.80;6.95;;;6.80;75.00;;;;;;5046206;28;20028;-56
2022/11/15 04:45:12;;;;;;;13.10;7.88;;;6.80;75.00;;;;;;5033898;28;20025;-57
2022/11/15 04:47:37;;;;;;;12.25;7.43;;;6.80;74.90;;;;;;5031169;28;20033;-57
2022/11/15 04:50:03;;;;;;;11.65;7.05;;;6.80;75.00;;;;;;5032488;28;20029;-58
2022/11/15 04:52:29;;;;;;;13.13;8.10;;;6.70;74.90;;;;;;5037877;28;20053;-57
2022/11/15 04:54:55;;;;;;;13.05;9.00;;;6.70;74.80;;;;;;5042560;28;20072;-56
2022/11/15 04:57:20;;;;;;;14.63;8.02;;;6.70;74.70;;;;;;5042486;28;20400;-59
2022/11/15 04:59:46;;;;;;;12.77;8.43;;;6.70;74.70;;;;;;5034732;28;20025;-56
2022/11/15 05:02:12;;;;;;;12.85;7.97;;;6.60;74.60;;;;;;5041635;28;20044;-57
2022/11/15 05:04:37;;;;;;;17.38;9.98;;;6.60;74.50;;;;;;5044591;28;20380;-57
2022/11/15 05:07:05;;;;;;;14.98;10.35;;;6.60;74.50;;;;;;5038354;28;20079;-59
2022/11/15 05:09:31;;;;;;;20.27;11.68;;;6.50;74.60;;;;;;5035557;28;20227;-59
2022/11/15 05:11:57;;;;;;;21.13;12.73;;;6.40;74.70;;;;;;5046127;28;20138;-59
2022/11/15 05:14:22;;;;;;;21.50;12.23;;;6.40;74.90;;;;;;5037004;28;20084;-56
2022/11/15 05:16:48;;;;;;;22.33;13.18;;;6.30;75.00;;;;;;5031469;28;20038;-57
2022/11/15 05:19:14;;;;;;;15.13;9.45;;;6.20;75.10;;;;;;5037684;28;20488;-56
2022/11/15 05:21:40;;;;;;;15.25;8.82;;;6.10;75.30;;;;;;5044681;28;20025;-58
2022/11/15 05:24:06;;;;;;;14.45;8.93;;;6.10;75.60;;;;;;5044615;28;20531;-59
2022/11/15 05:26:32;;;;;;;17.30;10.23;;;6.10;75.70;;;;;;5038874;28;20049;-58
2022/11/15 05:28:58;;;;;;;20.40;11.52;;;6.10;75.70;;;;;;5039125;28;20059;-58
2022/11/15 05:31:25;;;;;;;18.58;11.00;;;6.10;76.00;;;;;;5032917;28;20040;-58
2022/11/15 05:33:52;;;;;;;15.38;9.55;;;6.10;75.60;;;;;;5039726;28;20032;-60
2022/11/15 05:36:33;;;;;;;14.32;8.27;;;6.10;75.70;;;;;;5041370;28;20112;-58
2022/11/15 05:38:59;;;;;;;13.57;7.88;;;6.10;75.70;;;;;;5039306;28;20543;-58
2022/11/15 05:41:35;;;;;;;12.52;8.20;;;6.20;75.90;;;;;;5031604;28;20108;-59
2022/11/15 05:44:04;;;;;;;10.63;7.32;;;6.20;75.70;;;;;;5031549;28;20021;-59
2022/11/15 05:46:30;;;;;;;10.85;7.45;;;6.20;75.60;;;;;;5031942;28;20074;-59
2022/11/15 05:48:57;;;;;;;10.77;7.38;;;6.30;75.50;;;;;;5029758;28;20029;-58
2022/11/15 05:51:23;;;;;;;10.75;7.35;;;6.30;75.40;;;;;;5030987;28;20030;-59
2022/11/15 05:53:50;;;;;;;12.55;8.65;;;6.30;75.40;;;;;;5032011;28;20022;-58
2022/11/15 05:56:16;;;;;;;10.48;7.72;;;6.30;75.30;;;;;;5030370;28;20021;-59
2022/11/15 05:58:42;;;;;;;8.93;7.57;;;6.30;75.30;;;;;;5030424;28;20021;-59
2022/11/15 06:01:08;;;;;;;11.48;8.25;;;6.30;75.30;;;;;;5029112;28;20037;-59
2022/11/15 06:03:34;;;;;;;9.80;6.65;;;6.30;75.50;;;;;;5029876;28;20026;-58
2022/11/15 06:06:00;;;;;;;8.60;6.38;;;6.30;75.70;;;;;;5026901;28;21144;-59
2022/11/15 06:08:25;;;;;;;9.40;5.80;;;6.30;75.90;;;;;;5020173;28;20143;-57
2022/11/15 06:10:51;;;;;;;10.60;7.15;;;6.30;75.90;;;;;;5029983;28;20475;-59
2022/11/15 06:13:17;;;;;;;9.52;6.18;;;6.30;76.10;;;;;;5026659;28;20136;-58
2022/11/15 06:15:42;;;;;;;8.18;5.78;;;6.40;76.10;;;;;;5024109;28;20359;-58
2022/11/15 06:18:08;;;;;;;9.35;6.25;;;6.40;76.00;;;;;;5026813;28;20033;-58
2022/11/15 06:20:33;;;;;;;9.73;6.47;;;6.50;76.00;;;;;;5029733;28;20040;-59
2022/11/15 06:23:01;;;;;;;9.27;6.22;;;6.60;75.80;;;;;;5021759;28;20359;-58
2022/11/15 06:25:30;;;;;;;8.25;6.05;;;6.70;75.80;;;;;;5031446;28;20029;-57
2022/11/15 06:27:59;;;;;;;8.50;6.70;;;6.70;75.70;;;;;;5035266;28;20136;-58
2022/11/15 06:30:25;;;;;;;10.02;6.95;;;6.80;75.60;;;;;;5030874;28;20126;-58
2022/11/15 06:32:51;;;;;;;9.93;6.25;;;6.90;75.60;;;;;;5030657;28;20117;-58
2022/11/15 06:35:17;;;;;;;9.02;6.45;;;6.90;75.30;;;;;;5023736;28;20423;-60
2022/11/15 06:37:43;;;;;;;8.05;5.88;;;7.00;75.20;;;;;;5019848;28;20056;-59
2022/11/15 06:40:10;;;;;;;8.45;6.10;;;7.00;75.00;;;;;;5019230;28;20548;-60
2022/11/15 06:42:36;;;;;;;8.85;6.78;;;7.10;75.00;;;;;;5024736;28;20026;-57
2022/11/15 06:45:02;;;;;;;9.10;6.15;;;7.10;74.70;;;;;;5029262;28;20039;-58
2022/11/15 06:47:27;;;;;;;10.18;7.07;;;7.10;74.70;;;;;;5020642;28;20727;-57
2022/11/15 06:49:53;;;;;;;8.30;6.53;;;7.20;74.50;;;;;;5021119;28;20025;-60
2022/11/15 06:52:19;;;;;;;9.30;6.93;;;7.30;74.40;;;;;;5023381;28;20036;-60
2022/11/15 06:54:45;;;;;;;8.65;6.75;;;7.30;74.00;;;;;;5016986;28;20061;-59
2022/11/15 06:57:11;;;;;;;10.25;7.22;;;7.30;74.10;;;;;;5013418;28;20373;-59
2022/11/15 06:59:37;;;;;;;9.90;6.93;;;7.40;74.00;;;;;;5013495;28;20032;-60
2022/11/15 07:02:03;;;;;;;11.23;7.13;;;7.40;73.90;;;;;;5008220;28;20049;-60
2022/11/15 07:04:28;;;;;;;10.43;7.63;;;7.40;73.80;;;;;;5017501;28;20516;-59
2022/11/15 07:06:54;;;;;;;11.45;8.10;;;7.40;73.60;;;;;;5024488;28;20023;-59
2022/11/15 07:09:20;;;;;;;9.95;7.72;;;7.50;73.40;;;;;;5021496;28;20036;-60
2022/11/15 07:11:45;;;;;;;10.70;7.20;;;7.50;73.50;;;;;;5027111;28;20025;-59
2022/11/15 07:14:11;;;;;;;13.32;8.23;;;7.50;73.50;;;;;;5021634;28;20064;-58
2022/11/15 07:16:37;;;;;;;12.68;8.30;;;7.50;73.50;;;;;;5018560;28;20052;-61
2022/11/15 07:19:03;;;;;;;10.35;8.02;;;7.50;73.40;;;;;;5020289;28;20056;-59
2022/11/15 07:21:29;;;;;;;10.15;7.57;;;7.50;73.20;;;;;;5024922;28;20160;-59
2022/11/15 07:23:55;;;;;;;13.43;8.70;;;7.50;73.10;;;;;;5018865;28;20036;-60
2022/11/15 07:26:20;;;;;;;12.48;9.05;;;7.50;73.00;;;;;;5016786;28;20045;-59
2022/11/15 07:28:46;;;;;;;13.98;8.90;;;7.50;73.00;;;;;;5016226;28;20029;-59
2022/11/15 07:31:12;;;;;;;14.20;8.75;;;7.40;73.00;;;;;;5022122;28;20516;-60
2022/11/15 07:33:37;;;;;;;12.90;7.75;;;7.40;73.20;;;;;;5021851;28;20029;-59
2022/11/15 07:36:05;;;;;;;10.43;7.65;;;7.40;73.30;;;;;;5023817;28;20037;-59
2022/11/15 07:38:32;;;;;;;11.48;8.50;;;7.50;73.40;;;;;;5021751;28;20132;-59
2022/11/15 07:40:59;;;;;;;10.20;7.18;;;7.50;73.40;;;;;;5017112;28;20367;-61
2022/11/15 07:43:27;;;;;;;9.07;6.53;;;7.50;73.50;;;;;;5017997;28;20033;-59
2022/11/15 07:45:53;;;;;;;8.52;6.40;;;7.60;73.50;;;;;;5020109;28;20033;-59
2022/11/15 07:48:18;;;;;;;8.35;5.57;;;7.70;73.50;;;;;;5015704;28;20072;-59
2022/11/15 07:50:44;;;;;;;6.75;5.57;;;7.70;73.40;;;;;;5013178;28;20092;-61
2022/11/15 07:53:10;;;;;;;6.85;4.93;;;7.70;73.20;;;;;;5014827;28;21786;-60
2022/11/15 07:55:36;;;;;;;5.70;4.90;;;7.80;73.80;;;;;;5019985;28;20129;-59
2022/11/15 07:58:07;;;;;;;8.20;5.10;;;7.80;73.10;;;;;;5019508;28;20121;-59
2022/11/15 08:00:33;;;;;;;6.27;4.80;;;7.90;73.00;;;;;;5019465;28;20025;-59
2022/11/15 08:03:07;;;;;;;7.28;5.55;;;7.90;73.00;;;;;;5018399;28;20034;-59
2022/11/15 08:05:34;;;;;;;6.03;5.13;;;7.90;72.90;;;;;;5011116;28;20389;-58
2022/11/15 08:07:59;;;;;;;6.53;5.05;;;8.00;72.90;;;;;;5010941;28;20099;-58
2022/11/15 08:10:27;;;;;;;6.10;4.95;;;8.00;72.90;;;;;;5015569;28;20036;-59
2022/11/15 08:13:09;;;;;;;8.13;5.30;;;8.00;73.00;;;;;;5010152;28;20034;-60
2022/11/15 08:15:35;;;;;;;8.57;6.60;;;8.00;73.00;;;;;;5007254;28;20183;-59
2022/11/15 08:18:04;;;;;;;7.90;6.20;;;8.10;73.00;;;;;;5016084;28;20099;-60
2022/11/15 08:20:30;;;;;;;8.00;6.50;;;8.10;72.90;;;;;;5016052;28;20052;-57
2022/11/15 08:23:00;;;;;;;9.85;6.50;;;8.10;73.10;;;;;;5014434;28;20489;-59
2022/11/15 08:25:27;;;;;;;8.30;6.47;;;8.10;73.20;;;;;;5009541;28;20084;-58
2022/11/15 08:27:54;;;;;;;9.77;7.40;;;8.20;73.10;;;;;;5008916;28;20036;-60
2022/11/15 08:30:19;;;;;;;8.40;6.70;;;8.30;73.00;;;;;;5004510;28;20075;-60
2022/11/15 08:32:45;;;;;;;10.55;6.90;;;8.30;72.90;;;;;;5010349;28;20021;-60
2022/11/15 08:35:11;;;;;;;8.93;6.90;;;8.30;73.00;;;;;;5008337;28;20041;-61
2022/11/15 08:37:37;;;;;;;8.55;6.50;;;8.40;73.00;;;;;;5006806;28;20677;-60
2022/11/15 08:40:03;;;;;;;9.15;6.68;;;8.40;73.10;;;;;;5006465;28;20037;-61
2022/11/15 08:42:29;;;;;;;8.95;6.82;;;8.50;73.00;;;;;;4999272;28;20515;-59
2022/11/15 08:44:54;;;;;;;7.68;6.25;;;8.60;73.70;;;;;;5011179;28;20029;-59
2022/11/15 08:47:20;;;;;;;8.32;6.57;;;8.60;72.80;;;;;;5013842;28;20712;-58
2022/11/15 08:49:45;;;;;;;8.43;6.32;;;8.60;72.70;;;;;;5008495;28;20076;-58
2022/11/15 08:52:11;;;;;;;7.40;6.18;;;8.70;72.70;;;;;;5010088;28;20393;-60
2022/11/15 08:54:38;;;;;;;9.07;6.05;;;8.70;72.70;;;;;;5000320;28;20041;-59
2022/11/15 08:57:03;;;;;;;8.30;6.00;;;8.70;72.70;;;;;;5007874;28;20040;-61
2022/11/15 08:59:29;;;;;;;9.57;6.45;;;8.80;72.60;;;;;;5009626;28;20045;-60
2022/11/15 09:01:55;;;;;;;10.57;5.95;;;8.80;72.60;;;;;;4999314;28;20033;-59
2022/11/15 09:04:20;;;;;;;7.57;6.18;;;8.80;72.70;;;;;;5007803;28;20073;-60
2022/11/15 09:06:46;;;;;;;8.63;6.18;;;8.90;72.60;;;;;;5011951;28;20476;-59
2022/11/15 09:09:11;;;;;;;8.52;6.97;;;8.90;72.60;;;;;;5012517;28;20444;-61
2022/11/15 09:11:37;;;;;;;9.68;7.53;;;9.00;72.50;;;;;;5011498;28;20091;-58
2022/11/15 09:14:03;;;;;;;8.88;6.75;;;9.00;72.50;;;;;;5004980;28;20064;-59
2022/11/15 09:16:30;;;;;;;8.20;6.72;;;9.10;73.20;;;;;;5010422;28;20036;-61
2022/11/15 09:18:56;;;;;;;9.77;7.07;;;9.10;72.50;;;;;;5010768;28;20033;-59
2022/11/15 09:21:22;;;;;;;8.05;6.43;;;9.20;72.60;;;;;;5012850;28;20482;-58
2022/11/15 09:23:51;;;;;;;8.85;6.40;;;9.30;72.60;;;;;;5002021;28;20125;-59
2022/11/15 09:26:17;;;;;;;8.50;6.25;;;9.30;72.40;;;;;;5007461;28;20040;-57
2022/11/15 09:28:43;;;;;;;8.27;6.10;;;9.40;72.40;;;;;;5008475;28;20048;-60
2022/11/15 09:31:09;;;;;;;7.85;6.03;;;9.40;72.40;;;;;;5011541;28;20030;-59
2022/11/15 09:33:35;;;;;;;6.32;5.45;;;9.50;72.40;;;;;;5004223;28;20061;-62
2022/11/15 09:36:09;;;;;;;7.63;5.88;;;9.60;72.40;;;;;;4993981;28;20041;-61
2022/11/15 09:38:34;;;;;;;6.47;5.57;;;9.60;72.30;;;;;;5009081;28;20533;-61
2022/11/15 09:41:58;;;;;;;6.93;5.55;;;9.70;72.20;;;;;;5009785;28;20037;-62
2022/11/15 09:44:39;;;;;;;6.78;5.78;;;9.70;72.00;;;;;;4969793;28;20045;-60
2022/11/15 09:47:43;;;;;;;6.70;5.05;;;9.80;71.80;;;;;;5011849;28;20027;-60
2022/11/15 09:50:15;;;;;;;6.35;5.53;;;9.80;71.70;;;;;;5013076;28;20088;-61
2022/11/15 09:52:44;;;;;;;5.32;4.40;;;9.80;71.70;;;;;;5011288;28;20437;-61
2022/11/15 09:55:21;;;;;;;7.63;5.18;;;9.90;71.90;;;;;;5013604;28;20033;-61
2022/11/15 09:58:02;;;;;;;5.57;4.50;;;9.90;71.80;;;;;;5008919;28;20033;-59
2022/11/15 10:00:35;;;;;;;7.50;4.97;;;10.00;71.60;;;;;;5005166;28;20034;-59
2022/11/15 10:03:09;;;;;;;6.97;4.28;;;10.00;71.60;;;;;;4998784;28;20114;-57
2022/11/15 10:05:46;;;;;;;6.75;5.07;;;10.10;71.60;;;;;;5016911;28;20040;-60
2022/11/15 10:08:27;;;;;;;6.20;4.45;;;10.10;71.50;;;;;;5006162;28;20057;-61
2022/11/15 10:10:59;;;;;;;5.47;4.43;;;10.20;71.50;;;;;;5009801;28;20734;-61
2022/11/15 10:13:29;;;;;;;6.15;4.55;;;10.20;71.50;;;;;;5004991;28;21553;-60
2022/11/15 10:16:23;;;;;;;4.70;3.92;;;10.20;71.40;;;;;;5006016;28;20066;-58
2022/11/15 10:19:07;;;;;;;5.55;4.43;;;10.30;71.30;;;;;;5004056;28;20038;-60
2022/11/15 10:21:59;;;;;;;5.47;3.97;;;10.30;71.30;;;;;;5008126;28;20038;-60
2022/11/15 10:24:30;;;;;;;5.18;4.40;;;10.40;71.30;;;;;;4977092;28;21025;-60
2022/11/15 10:26:57;;;;;;;5.55;4.45;;;10.40;71.40;;;;;;5005289;28;20032;-57
2022/11/15 10:29:24;;;;;;;5.75;4.43;;;10.50;71.30;;;;;;5006615;28;20033;-56
2022/11/15 10:31:50;;;;;;;6.50;4.72;;;10.50;71.00;;;;;;5009305;28;20092;-57
2022/11/15 10:34:19;;;;;;;5.45;4.22;;;10.50;70.90;;;;;;5006714;28;20151;-59
2022/11/15 10:37:05;;;;;;;5.03;4.15;;;10.50;71.10;;;;;;5013054;28;20026;-60
2022/11/15 10:39:33;;;;;;;5.20;4.03;;;10.60;71.10;;;;;;5015852;28;20137;-59
2022/11/15 10:42:27;;;;;;;5.95;4.13;;;10.60;71.00;;;;;;5008810;28;20030;-60
2022/11/15 10:44:54;;;;;;;6.00;4.38;;;10.70;71.00;;;;;;5010002;28;20829;-60
2022/11/15 10:47:22;;;;;;;5.22;3.90;;;10.70;71.00;;;;;;5012213;28;20021;-59
2022/11/15 10:50:04;;;;;;;4.20;3.47;;;10.70;71.00;;;;;;5012324;28;20037;-59
2022/11/15 10:52:31;;;;;;;5.32;3.83;;;10.70;70.50;;;;;;5016974;28;20489;-60
2022/11/15 10:55:12;;;;;;;5.45;4.15;;;10.70;70.70;;;;;;5014826;28;20025;-60
2022/11/15 10:57:39;;;;;;;4.78;3.53;;;10.80;70.60;;;;;;5010289;28;20045;-61
2022/11/15 11:00:28;;;;;;;6.70;4.70;;;10.80;70.40;;;;;;5004448;28;20041;-61
2022/11/15 11:02:57;;;;;;;6.20;4.45;;;10.80;70.50;;;;;;5007564;28;20175;-61
2022/11/15 11:05:36;;;;;;;5.70;4.30;;;10.80;70.60;;;;;;5010053;28;22504;-59
2022/11/15 11:08:23;;;;;;;4.97;4.00;;;10.80;70.50;;;;;;5013117;28;20021;-58
2022/11/15 11:10:57;;;;;;;4.00;3.60;;;10.80;70.70;;;;;;5011049;28;20052;-59
2022/11/15 11:13:26;;;;;;;6.28;4.03;;;10.80;70.70;;;;;;5005606;28;20158;-59
2022/11/15 11:16:13;;;;;;;6.63;4.75;;;10.80;70.70;;;;;;5010003;28;20488;-60
2022/11/15 11:19:06;;;;;;;5.53;4.18;;;10.80;70.40;;;;;;5018793;28;20029;-56
2022/11/15 11:21:53;;;;;;;5.65;4.18;;;10.80;70.60;;;;;;5017932;28;20098;-58
2022/11/15 11:24:30;;;;;;;4.90;3.72;;;10.90;70.60;;;;;;5008206;28;21762;-61
2022/11/15 11:27:05;;;;;;;4.40;3.58;;;10.90;70.60;;;;;;5011917;28;20037;-59
2022/11/15 11:29:33;;;;;;;5.00;4.20;;;10.90;70.50;;;;;;5007213;28;20426;-60
2022/11/15 11:32:22;;;;;;;5.38;3.85;;;11.00;70.50;;;;;;5012104;28;20050;-59
2022/11/15 11:35:11;;;;;;;5.30;3.80;;;11.00;70.50;;;;;;5009881;28;20768;-57
2022/11/15 11:37:46;;;;;;;5.25;4.07;;;11.00;70.40;;;;;;5000280;28;20111;-56
2022/11/15 11:40:24;;;;;;;5.00;3.92;;;11.00;70.40;;;;;;5009443;28;20033;-55
2022/11/15 11:42:57;;;;;;;5.30;4.07;;;11.00;70.30;;;;;;5006873;28;20107;-57
2022/11/15 11:45:54;;;;;;;5.90;3.95;;;11.00;70.40;;;;;;5007867;28;20030;-58
2022/11/15 11:48:35;;;;;;;5.72;4.05;;;11.10;70.30;;;;;;5005512;28;20690;-58
2022/11/15 11:51:20;;;;;;;;;;;11.10;70.20;;;;;;5013238;28;20025;-55
2022/11/15 11:53:57;;;;;;;4.32;3.03;;;11.10;69.70;;;;;;5007967;28;19967;-58
2022/11/15 11:56:31;;;;;;;4.93;3.80;;;11.10;69.90;;;;;;5009144;28;20481;-56
2022/11/15 11:59:12;;;;;;;4.15;3.30;;;11.00;69.80;;;;;;5012231;28;20038;-56
2022/11/15 12:01:42;;;;;;;5.65;4.05;;;11.00;69.70;;;;;;5005623;28;20120;-61
2022/11/15 12:04:27;;;;;;;3.90;3.40;;;11.00;69.80;;;;;;5002182;28;20052;-58
2022/11/15 12:07:07;;;;;;;4.75;3.72;;;11.10;69.70;;;;;;5004105;28;20069;-58
2022/11/15 12:09:53;;;;;;;4.15;3.28;;;11.10;69.50;;;;;;5010266;28;20661;-58
2022/11/15 12:12:41;;;;;;;3.97;3.53;;;11.10;69.40;;;;;;5010598;28;20023;-60
2022/11/15 12:15:10;;;;;;;5.25;3.67;;;11.10;69.40;;;;;;5008059;28;20045;-60
2022/11/15 12:17:38;;;;;;;4.10;3.60;;;11.10;69.30;;;;;;5012341;28;20029;-57
2022/11/15 12:20:27;;;;;;;5.30;3.42;;;11.00;69.20;;;;;;5011290;28;20182;-59
2022/11/15 12:23:05;;;;;;;3.83;3.42;;;11.00;69.10;;;;;;5008567;28;20056;-57
2022/11/15 12:25:40;;;;;;;3.95;3.45;;;11.10;69.30;;;;;;4994034;28;20032;-55
2022/11/15 12:28:20;;;;;;;4.47;3.60;;;11.10;69.20;;;;;;5013558;28;20025;-55
2022/11/15 12:30:54;;;;;;;4.57;3.42;;;11.10;69.10;;;;;;5006564;28;20144;-58
2022/11/15 12:33:41;;;;;;;4.22;3.63;;;11.10;69.10;;;;;;5005151;28;20405;-56
2022/11/15 12:36:22;;;;;;;4.40;3.70;;;11.10;69.00;;;;;;5003563;28;20040;-57
2022/11/15 12:39:13;;;;;;;4.63;3.70;;;11.10;68.70;;;;;;5004312;28;20406;-61
2022/11/15 12:41:44;;;;;;;5.65;3.78;;;11.10;68.90;;;;;;5009719;28;20866;-61
2022/11/15 12:44:43;;;;;;;6.85;4.32;;;11.00;69.00;;;;;;5008505;28;20477;-60
2022/11/15 12:47:09;;;;;;;5.22;3.83;;;11.10;68.80;;;;;;4972698;28;20050;-57
2022/11/15 12:49:37;;;;;;;4.40;3.83;;;11.00;68.60;;;;;;5008791;28;20029;-58
2022/11/15 12:52:05;;;;;;;5.13;4.00;;;11.00;68.60;;;;;;5007168;28;20038;-59
2022/11/15 12:54:36;;;;;;;5.00;3.97;;;10.90;68.50;;;;;;5008218;28;20121;-59
2022/11/15 12:57:08;;;;;;;4.55;3.60;;;10.90;68.60;;;;;;5003465;28;20048;-62
2022/11/15 12:59:54;;;;;;;;;;;10.90;68.70;;;;;;5006726;28;20037;-61
2022/11/15 13:02:29;;;;;;;4.30;3.75;;;10.90;68.50;;;;;;5008186;28;19971;-59
2022/11/15 13:05:18;;;;;;;4.82;3.58;;;10.90;68.80;;;;;;4999643;28;20033;-62
2022/11/15 13:07:46;;;;;;;4.63;3.65;;;10.90;68.80;;;;;;5000616;28;20026;-62
2022/11/15 13:10:12;;;;;;;4.47;3.67;;;10.90;68.90;;;;;;5004297;28;20432;-61
2022/11/15 13:12:40;;;;;;;5.38;3.83;;;10.90;68.80;;;;;;5005827;28;20025;-59
2022/11/15 13:15:12;;;;;;;5.78;4.25;;;10.90;68.80;;;;;;5003585;28;20057;-58
2022/11/15 13:17:39;;;;;;;;;;;10.90;68.90;;;;;;5002426;28;20034;-57
2022/11/15 13:20:08;;;;;;;5.57;3.50;;;10.90;68.80;;;;;;5008327;28;19925;-58